sensor_id;sensor_type;location;lat;lon;timestamp;pressure;altitude;pressure_sealevel;temperature;humidity
75933;BME280;64803;52.356;5.310;2023-04-16T00:02:19;102577.50;;;8.01;100.00
75933;BME280;64803;52.356;5.310;2023-04-16T00:04:46;102572.28;;;7.99;100.00
75933;BME280;64803;52.356;5.310;2023-04-16T00:07:12;102571.78;;;7.94;100.00
75933;BME280;64803;52.356;5.310;2023-04-16T00:09:38;102575.19;;;7.96;100.00
75933;BME280;64803;52.356;5.310;2023-04-16T00:12:05;102579.44;;;7.99;100.00
75933;BME280;64803;52.356;5.310;2023-04-16T00:14:31;102579.56;;;7.97;100.00
75933;BME280;64803;52.356;5.310;2023-04-16T00:16:57;102583.22;;;7.96;100.00
75933;BME280;64803;52.356;5.310;2023-04-16T00:19:23;102575.91;;;7.98;100.00
75933;BME280;64803;52.356;5.310;2023-04-16T00:21:49;102572.41;;;7.98;100.00
75933;BME280;64803;52.356;5.310;2023-04-16T00:24:15;102579.56;;;7.97;100.00
75933;BME280;64803;52.356;5.310;2023-04-16T00:26:41;102571.66;;;7.96;100.00
75933;BME280;64803;52.356;5.310;2023-04-16T00:29:09;102574.47;;;7.94;100.00
75933;BME280;64803;52.356;5.310;2023-04-16T00:31:35;102574.34;;;7.96;100.00
75933;BME280;64803;52.356;5.310;2023-04-16T00:34:02;102568.25;;;7.94;100.00
75933;BME280;64803;52.356;5.310;2023-04-16T00:36:28;102576.16;;;7.95;100.00
75933;BME280;64803;52.356;5.310;2023-04-16T00:38:55;102573.72;;;7.92;100.00
75933;BME280;64803;52.356;5.310;2023-04-16T00:41:22;102571.78;;;7.94;100.00
75933;BME280;64803;52.356;5.310;2023-04-16T00:43:48;102552.09;;;7.84;100.00
75933;BME280;64803;52.356;5.310;2023-04-16T00:46:15;102567.06;;;7.98;100.00
75933;BME280;64803;52.356;5.310;2023-04-16T00:48:43;102569.84;;;7.96;100.00
75933;BME280;64803;52.356;5.310;2023-04-16T00:51:09;102569.84;;;7.96;100.00
75933;BME280;64803;52.356;5.310;2023-04-16T00:53:36;102564.50;;;7.96;100.00
75933;BME280;64803;52.356;5.310;2023-04-16T00:56:05;102579.56;;;7.97;100.00
75933;BME280;64803;52.356;5.310;2023-04-16T00:58:33;102569.59;;;7.99;100.00
75933;BME280;64803;52.356;5.310;2023-04-16T01:00:59;102575.81;;;8.00;100.00
75933;BME280;64803;52.356;5.310;2023-04-16T01:03:38;102568.63;;;8.00;100.00
75933;BME280;64803;52.356;5.310;2023-04-16T01:06:05;102569.97;;;8.06;100.00
75933;BME280;64803;52.356;5.310;2023-04-16T01:08:32;102569.22;;;8.04;100.00
75933;BME280;64803;52.356;5.310;2023-04-16T01:10:58;102573.38;;;8.08;100.00
75933;BME280;64803;52.356;5.310;2023-04-16T01:13:24;102570.97;;;8.05;100.00
75933;BME280;64803;52.356;5.310;2023-04-16T01:15:50;102570.09;;;8.05;100.00
75933;BME280;64803;52.356;5.310;2023-04-16T01:18:19;102565.94;;;8.00;100.00
75933;BME280;64803;52.356;5.310;2023-04-16T01:20:46;102568.03;;;8.08;100.00
75933;BME280;64803;52.356;5.310;2023-04-16T01:23:13;102568.91;;;8.09;100.00
75933;BME280;64803;52.356;5.310;2023-04-16T01:25:39;102574.00;;;8.12;100.00
75933;BME280;64803;52.356;5.310;2023-04-16T01:28:06;102573.00;;;8.13;100.00
75933;BME280;64803;52.356;5.310;2023-04-16T01:30:32;102565.72;;;8.15;100.00
75933;BME280;64803;52.356;5.310;2023-04-16T01:33:18;102574.97;;;8.11;100.00
75933;BME280;64803;52.356;5.310;2023-04-16T01:35:44;102573.00;;;8.13;100.00
75933;BME280;64803;52.356;5.310;2023-04-16T01:38:10;102563.28;;;8.12;100.00
75933;BME280;64803;52.356;5.310;2023-04-16T01:40:37;102557.44;;;7.95;100.00
75933;BME280;64803;52.356;5.310;2023-04-16T01:43:03;102583.38;;;8.17;100.00
75933;BME280;64803;52.356;5.310;2023-04-16T01:45:33;102580.31;;;8.22;100.00
75933;BME280;64803;52.356;5.310;2023-04-16T01:47:59;102581.66;;;8.16;100.00
75933;BME280;64803;52.356;5.310;2023-04-16T01:50:26;102571.06;;;8.15;100.00
75933;BME280;64803;52.356;5.310;2023-04-16T01:52:52;102585.06;;;8.18;100.00
75933;BME280;64803;52.356;5.310;2023-04-16T01:55:18;102582.38;;;8.18;100.00
75933;BME280;64803;52.356;5.310;2023-04-16T01:57:44;102577.78;;;8.20;100.00
75933;BME280;64803;52.356;5.310;2023-04-16T02:00:12;102580.56;;;8.19;100.00
75933;BME280;64803;52.356;5.310;2023-04-16T02:02:44;102580.56;;;8.19;100.00
75933;BME280;64803;52.356;5.310;2023-04-16T02:05:13;102573.50;;;8.18;100.00
75933;BME280;64803;52.356;5.310;2023-04-16T02:07:39;102583.84;;;8.22;100.00
75933;BME280;64803;52.356;5.310;2023-04-16T02:10:05;102579.38;;;8.23;100.00
75933;BME280;64803;52.356;5.310;2023-04-16T02:12:32;102583.50;;;8.27;100.00
75933;BME280;64803;52.356;5.310;2023-04-16T02:14:59;102573.06;;;8.24;100.00
75933;BME280;64803;52.356;5.310;2023-04-16T02:17:26;102585.47;;;8.25;100.00
75933;BME280;64803;52.356;5.310;2023-04-16T02:20:04;102572.28;;;8.22;100.00
75933;BME280;64803;52.356;5.310;2023-04-16T02:22:34;102581.56;;;8.29;100.00
75933;BME280;64803;52.356;5.310;2023-04-16T02:25:00;102576.47;;;8.26;100.00
75933;BME280;64803;52.356;5.310;2023-04-16T02:27:26;102585.25;;;8.28;100.00
75933;BME280;64803;52.356;5.310;2023-04-16T02:29:57;102590.81;;;8.25;100.00
75933;BME280;64803;52.356;5.310;2023-04-16T02:32:23;102586.44;;;8.24;100.00
75933;BME280;64803;52.356;5.310;2023-04-16T02:34:50;102592.53;;;8.26;100.00
75933;BME280;64803;52.356;5.310;2023-04-16T02:37:16;102583.50;;;8.27;100.00
75933;BME280;64803;52.356;5.310;2023-04-16T02:39:42;102586.06;;;8.28;100.00
75933;BME280;64803;52.356;5.310;2023-04-16T02:42:08;102580.72;;;8.28;100.00
75933;BME280;64803;52.356;5.310;2023-04-16T02:44:35;102591.41;;;8.28;100.00
75933;BME280;64803;52.356;5.310;2023-04-16T02:47:01;102586.94;;;8.29;100.00
75933;BME280;64803;52.356;5.310;2023-04-16T02:49:27;102584.50;;;8.26;100.00
75933;BME280;64803;52.356;5.310;2023-04-16T02:51:53;102587.19;;;8.26;100.00
75933;BME280;64803;52.356;5.310;2023-04-16T02:54:19;102591.41;;;8.28;100.00
75933;BME280;64803;52.356;5.310;2023-04-16T02:56:45;102580.09;;;8.25;100.00
75933;BME280;64803;52.356;5.310;2023-04-16T02:59:11;102593.03;;;8.31;100.00
75933;BME280;64803;52.356;5.310;2023-04-16T03:01:37;102595.94;;;8.28;100.00
75933;BME280;64803;52.356;5.310;2023-04-16T03:04:03;102575.47;;;8.16;100.00
75933;BME280;64803;52.356;5.310;2023-04-16T03:06:29;102594.22;;;8.27;100.00
75933;BME280;64803;52.356;5.310;2023-04-16T03:08:56;102603.00;;;8.29;100.00
75933;BME280;64803;52.356;5.310;2023-04-16T03:11:22;102606.66;;;8.28;100.00
75933;BME280;64803;52.356;5.310;2023-04-16T03:13:49;102603.84;;;8.29;100.00
75933;BME280;64803;52.356;5.310;2023-04-16T03:16:15;102611.75;;;8.31;100.00
75933;BME280;64803;52.356;5.310;2023-04-16T03:18:41;102610.28;;;8.27;100.00
75933;BME280;64803;52.356;5.310;2023-04-16T03:21:07;102606.88;;;8.25;100.00
75933;BME280;64803;52.356;5.310;2023-04-16T03:23:33;102606.88;;;8.25;100.00
75933;BME280;64803;52.356;5.310;2023-04-16T03:26:01;102603.44;;;8.23;100.00
75933;BME280;64803;52.356;5.310;2023-04-16T03:28:28;102606.13;;;8.23;100.00
75933;BME280;64803;52.356;5.310;2023-04-16T03:30:54;102613.22;;;8.24;100.00
75933;BME280;64803;52.356;5.310;2023-04-16T03:33:20;102613.94;;;8.26;100.00
75933;BME280;64803;52.356;5.310;2023-04-16T03:35:53;102606.66;;;8.28;100.00
75933;BME280;64803;52.356;5.310;2023-04-16T03:38:20;102613.94;;;8.26;100.00
75933;BME280;64803;52.356;5.310;2023-04-16T03:40:46;102611.47;;;8.23;100.00
75933;BME280;64803;52.356;5.310;2023-04-16T03:43:13;102613.09;;;8.25;100.00
75933;BME280;64803;52.356;5.310;2023-04-16T03:45:44;102608.59;;;8.26;100.00
75933;BME280;64803;52.356;5.310;2023-04-16T03:48:10;102622.72;;;8.28;100.00
75933;BME280;64803;52.356;5.310;2023-04-16T03:50:36;102619.03;;;8.29;100.00
75933;BME280;64803;52.356;5.310;2023-04-16T03:53:05;102621.47;;;8.32;100.00
75933;BME280;64803;52.356;5.310;2023-04-16T03:55:31;102623.31;;;8.31;100.00
75933;BME280;64803;52.356;5.310;2023-04-16T03:57:57;102622.47;;;8.31;100.00
75933;BME280;64803;52.356;5.310;2023-04-16T04:00:28;102629.00;;;8.27;100.00
75933;BME280;64803;52.356;5.310;2023-04-16T04:03:10;102625.50;;;8.26;100.00
75933;BME280;64803;52.356;5.310;2023-04-16T04:05:41;102620.03;;;8.28;100.00
75933;BME280;64803;52.356;5.310;2023-04-16T04:08:10;102626.69;;;8.22;100.00
75933;BME280;64803;52.356;5.310;2023-04-16T04:10:36;102629.69;;;8.18;100.00
75933;BME280;64803;52.356;5.310;2023-04-16T04:13:05;102620.59;;;8.20;100.00
75933;BME280;64803;52.356;5.310;2023-04-16T04:15:32;102628.50;;;8.22;100.00
75933;BME280;64803;52.356;5.310;2023-04-16T04:17:58;102631.53;;;8.17;100.00
75933;BME280;64803;52.356;5.310;2023-04-16T04:20:24;102617.41;;;8.15;100.00
75933;BME280;64803;52.356;5.310;2023-04-16T04:22:51;102629.00;;;8.16;100.00
75933;BME280;64803;52.356;5.310;2023-04-16T04:25:20;102628.25;;;8.14;100.00
75933;BME280;64803;52.356;5.310;2023-04-16T04:27:46;102622.03;;;8.13;100.00
75933;BME280;64803;52.356;5.310;2023-04-16T04:30:12;102634.34;;;8.16;100.00
75933;BME280;64803;52.356;5.310;2023-04-16T04:32:40;102637.22;;;8.13;100.00
75933;BME280;64803;52.356;5.310;2023-04-16T04:35:06;102641.75;;;8.12;100.00
75933;BME280;64803;52.356;5.310;2023-04-16T04:37:32;102637.22;;;8.13;100.00
75933;BME280;64803;52.356;5.310;2023-04-16T04:40:02;102645.38;;;8.11;100.00
75933;BME280;64803;52.356;5.310;2023-04-16T04:42:28;102642.38;;;8.16;100.00
75933;BME280;64803;52.356;5.310;2023-04-16T04:44:55;102650.28;;;8.17;100.00
75933;BME280;64803;52.356;5.310;2023-04-16T04:47:22;102651.84;;;8.20;100.00
75933;BME280;64803;52.356;5.310;2023-04-16T04:49:48;102637.22;;;8.13;100.00
75933;BME280;64803;52.356;5.310;2023-04-16T04:52:14;102649.53;;;8.15;100.00
75933;BME280;64803;52.356;5.310;2023-04-16T04:54:40;102649.53;;;8.15;100.00
75933;BME280;64803;52.356;5.310;2023-04-16T04:57:07;102657.44;;;8.17;100.00
75933;BME280;64803;52.356;5.310;2023-04-16T04:59:33;102627.25;;;8.04;100.00
75933;BME280;64803;52.356;5.310;2023-04-16T05:01:59;102648.66;;;8.15;100.00
75933;BME280;64803;52.356;5.310;2023-04-16T05:04:27;102655.50;;;8.19;100.00
75933;BME280;64803;52.356;5.310;2023-04-16T05:06:53;102656.25;;;8.21;100.00
75933;BME280;64803;52.356;5.310;2023-04-16T05:09:19;102662.34;;;8.23;100.00
75933;BME280;64803;52.356;5.310;2023-04-16T05:11:45;102648.22;;;8.21;100.00
75933;BME280;64803;52.356;5.310;2023-04-16T05:14:11;102653.34;;;8.24;100.00
75933;BME280;64803;52.356;5.310;2023-04-16T05:16:37;102662.34;;;8.23;100.00
75933;BME280;64803;52.356;5.310;2023-04-16T05:19:03;102660.19;;;8.28;100.00
75933;BME280;64803;52.356;5.310;2023-04-16T05:21:29;102647.22;;;8.22;100.00
75933;BME280;64803;52.356;5.310;2023-04-16T05:23:56;102665.53;;;8.28;100.00
75933;BME280;64803;52.356;5.310;2023-04-16T05:26:22;102667.84;;;8.32;100.00
75933;BME280;64803;52.356;5.310;2023-04-16T05:28:47;102661.88;;;8.29;100.00
75933;BME280;64803;52.356;5.310;2023-04-16T05:31:14;102667.22;;;8.29;100.00
75933;BME280;64803;52.356;5.310;2023-04-16T05:33:40;102670.88;;;8.28;100.00
75933;BME280;64803;52.356;5.310;2023-04-16T05:36:06;102674.50;;;8.27;100.00
75933;BME280;64803;52.356;5.310;2023-04-16T05:38:32;102668.44;;;8.25;100.00
75933;BME280;64803;52.356;5.310;2023-04-16T05:40:58;102666.97;;;8.32;100.00
75933;BME280;64803;52.356;5.310;2023-04-16T05:43:24;102670.50;;;8.32;100.00
75933;BME280;64803;52.356;5.310;2023-04-16T05:45:50;102672.13;;;8.35;100.00
75933;BME280;64803;52.356;5.310;2023-04-16T05:48:16;102676.72;;;8.33;100.00
75933;BME280;64803;52.356;5.310;2023-04-16T05:50:42;102676.84;;;8.31;100.00
75933;BME280;64803;52.356;5.310;2023-04-16T05:53:08;102682.81;;;8.35;100.00
75933;BME280;64803;52.356;5.310;2023-04-16T05:55:35;102679.41;;;8.33;100.00
75933;BME280;64803;52.356;5.310;2023-04-16T05:58:04;102675.63;;;8.35;100.00
75933;BME280;64803;52.356;5.310;2023-04-16T06:00:31;102679.28;;;8.34;100.00
75933;BME280;64803;52.356;5.310;2023-04-16T06:02:57;102679.16;;;8.36;100.00
75933;BME280;64803;52.356;5.310;2023-04-16T06:05:25;102682.56;;;8.38;100.00
75933;BME280;64803;52.356;5.310;2023-04-16T06:07:51;102650.41;;;8.16;100.00
75933;BME280;64803;52.356;5.310;2023-04-16T06:10:18;102675.75;;;8.34;100.00
75933;BME280;64803;52.356;5.310;2023-04-16T06:12:44;102683.31;;;8.40;100.00
75933;BME280;64803;52.356;5.310;2023-04-16T06:15:10;102684.50;;;8.36;100.00
75933;BME280;64803;52.356;5.310;2023-04-16T06:17:36;102688.19;;;8.35;100.00
75933;BME280;64803;52.356;5.310;2023-04-16T06:20:02;102678.22;;;8.37;100.00
75933;BME280;64803;52.356;5.310;2023-04-16T06:22:28;102683.56;;;8.37;100.00
75933;BME280;64803;52.356;5.310;2023-04-16T06:24:54;102688.91;;;8.37;100.00
75933;BME280;64803;52.356;5.310;2023-04-16T06:27:20;102689.75;;;8.37;100.00
75933;BME280;64803;52.356;5.310;2023-04-16T06:29:46;102689.63;;;8.39;100.00
75933;BME280;64803;52.356;5.310;2023-04-16T06:32:12;102697.19;;;8.45;100.00
75933;BME280;64803;52.356;5.310;2023-04-16T06:34:38;102705.22;;;8.45;100.00
75933;BME280;64803;52.356;5.310;2023-04-16T06:37:05;102713.00;;;8.48;100.00
75933;BME280;64803;52.356;5.310;2023-04-16T06:39:31;102702.31;;;8.48;100.00
75933;BME280;64803;52.356;5.310;2023-04-16T06:41:57;102710.56;;;8.45;100.00
75933;BME280;64803;52.356;5.310;2023-04-16T06:44:23;102712.06;;;8.49;100.00
75933;BME280;64803;52.356;5.310;2023-04-16T06:46:49;102715.69;;;8.48;100.00
75933;BME280;64803;52.356;5.310;2023-04-16T06:49:15;102716.66;;;8.47;100.00
75933;BME280;64803;52.356;5.310;2023-04-16T06:51:41;102718.25;;;8.49;100.00
75933;BME280;64803;52.356;5.310;2023-04-16T06:54:07;102724.09;;;8.54;100.00
75933;BME280;64803;52.356;5.310;2023-04-16T06:56:33;102722.75;;;8.49;100.00
75933;BME280;64803;52.356;5.310;2023-04-16T06:59:02;102710.56;;;8.45;100.00
75933;BME280;64803;52.356;5.310;2023-04-16T07:01:29;102732.72;;;8.58;100.00
75933;BME280;64803;52.356;5.310;2023-04-16T07:03:56;102733.25;;;8.63;100.00
75933;BME280;64803;52.356;5.310;2023-04-16T07:06:22;102732.53;;;8.61;100.00
75933;BME280;64803;52.356;5.310;2023-04-16T07:08:48;102731.66;;;8.60;100.00
75933;BME280;64803;52.356;5.310;2023-04-16T07:11:14;102730.59;;;8.63;100.00
75933;BME280;64803;52.356;5.310;2023-04-16T07:13:41;102741.03;;;8.66;100.00
75933;BME280;64803;52.356;5.310;2023-04-16T07:16:07;102739.31;;;8.65;100.00
75933;BME280;64803;52.356;5.310;2023-04-16T07:18:33;102735.69;;;8.66;100.00
75933;BME280;64803;52.356;5.310;2023-04-16T07:20:59;102737.38;;;8.67;100.00
75933;BME280;64803;52.356;5.310;2023-04-16T07:23:25;102740.81;;;8.69;100.00
75933;BME280;64803;52.356;5.310;2023-04-16T07:25:51;102741.41;;;8.72;100.00
75933;BME280;64803;52.356;5.310;2023-04-16T07:28:17;102749.56;;;8.71;100.00
75933;BME280;64803;52.356;5.310;2023-04-16T07:30:43;102745.91;;;8.72;100.00
75933;BME280;64803;52.356;5.310;2023-04-16T07:33:09;102747.88;;;8.70;100.00
75933;BME280;64803;52.356;5.310;2023-04-16T07:35:35;102749.69;;;8.69;100.00
75933;BME280;64803;52.356;5.310;2023-04-16T07:38:01;102755.06;;;8.69;100.00
75933;BME280;64803;52.356;5.310;2023-04-16T07:40:27;102752.25;;;8.71;100.00
75933;BME280;64803;52.356;5.310;2023-04-16T07:42:54;102757.34;;;8.74;100.00
75933;BME280;64803;52.356;5.310;2023-04-16T07:45:20;102754.94;;;8.71;100.00
75933;BME280;64803;52.356;5.310;2023-04-16T07:47:46;102760.03;;;8.74;100.00
75933;BME280;64803;52.356;5.310;2023-04-16T07:50:12;102771.38;;;8.77;100.00
75933;BME280;64803;52.356;5.310;2023-04-16T07:52:38;102768.44;;;8.80;100.00
75933;BME280;64803;52.356;5.310;2023-04-16T07:55:07;102775.66;;;8.80;100.00
75933;BME280;64803;52.356;5.310;2023-04-16T07:57:33;102776.59;;;8.79;100.00
75933;BME280;64803;52.356;5.310;2023-04-16T07:59:59;102783.44;;;8.83;100.00
75933;BME280;64803;52.356;5.310;2023-04-16T08:02:39;102787.94;;;8.82;100.00
75933;BME280;64803;52.356;5.310;2023-04-16T08:05:06;102781.25;;;8.77;100.00
75933;BME280;64803;52.356;5.310;2023-04-16T08:07:32;102787.31;;;8.79;100.00
75933;BME280;64803;52.356;5.310;2023-04-16T08:09:58;102787.94;;;8.82;100.00
75933;BME280;64803;52.356;5.310;2023-04-16T08:12:24;102778.91;;;8.72;100.00
75933;BME280;64803;52.356;5.310;2023-04-16T08:14:50;102795.63;;;8.87;100.00
75933;BME280;64803;52.356;5.310;2023-04-16T08:17:16;102792.94;;;8.87;100.00
75933;BME280;64803;52.356;5.310;2023-04-16T08:19:43;102792.09;;;8.86;100.00
75933;BME280;64803;52.356;5.310;2023-04-16T08:22:12;102804.50;;;8.87;100.00
75933;BME280;64803;52.356;5.310;2023-04-16T08:24:38;102800.38;;;8.83;100.00
75933;BME280;64803;52.356;5.310;2023-04-16T08:27:04;102807.31;;;8.86;100.00
75933;BME280;64803;52.356;5.310;2023-04-16T08:29:31;102798.31;;;8.87;100.00
75933;BME280;64803;52.356;5.310;2023-04-16T08:31:58;102805.84;;;8.82;100.00
75933;BME280;64803;52.356;5.310;2023-04-16T08:34:24;102796.84;;;8.83;100.00
75933;BME280;64803;52.356;5.310;2023-04-16T08:36:50;102791.34;;;8.73;100.00
75933;BME280;64803;52.356;5.310;2023-04-16T08:39:16;102805.84;;;8.82;100.00
75933;BME280;64803;52.356;5.310;2023-04-16T08:41:45;102808.53;;;8.93;100.00
75933;BME280;64803;52.356;5.310;2023-04-16T08:44:24;102807.78;;;8.91;100.00
75933;BME280;64803;52.356;5.310;2023-04-16T08:46:52;102804.91;;;8.94;100.00
75933;BME280;64803;52.356;5.310;2023-04-16T08:49:24;102808.31;;;8.96;100.00
75933;BME280;64803;52.356;5.310;2023-04-16T08:51:55;102814.13;;;8.90;100.00
75933;BME280;64803;52.356;5.310;2023-04-16T08:54:38;102814.91;;;9.03;100.00
75933;BME280;64803;52.356;5.310;2023-04-16T08:57:09;102813.78;;;9.05;100.00
75933;BME280;64803;52.356;5.310;2023-04-16T08:59:37;102816.84;;;9.01;100.00
75933;BME280;64803;52.356;5.310;2023-04-16T09:02:05;102818.44;;;9.15;100.00
75933;BME280;64803;52.356;5.310;2023-04-16T09:04:31;102822.56;;;9.07;100.00
75933;BME280;64803;52.356;5.310;2023-04-16T09:06:59;102827.44;;;9.13;100.00
75933;BME280;64803;52.356;5.310;2023-04-16T09:09:27;102827.09;;;9.18;100.00
75933;BME280;64803;52.356;5.310;2023-04-16T09:11:53;102826.59;;;9.13;100.00
75933;BME280;64803;52.356;5.310;2023-04-16T09:14:19;102825.38;;;9.28;100.00
75933;BME280;64803;52.356;5.310;2023-04-16T09:16:45;102829.53;;;9.32;100.00
75933;BME280;64803;52.356;5.310;2023-04-16T09:19:15;102811.47;;;9.12;100.00
75933;BME280;64803;52.356;5.310;2023-04-16T09:21:42;102830.09;;;9.13;100.00
75933;BME280;64803;52.356;5.310;2023-04-16T09:24:10;102834.16;;;9.08;100.00
75933;BME280;64803;52.356;5.310;2023-04-16T09:26:36;102829.16;;;9.15;100.00
75933;BME280;64803;52.356;5.310;2023-04-16T09:29:04;102841.44;;;9.17;100.00
75933;BME280;64803;52.356;5.310;2023-04-16T09:31:30;102842.91;;;9.10;100.00
75933;BME280;64803;52.356;5.310;2023-04-16T09:34:01;102832.19;;;9.10;100.00
75933;BME280;64803;52.356;5.310;2023-04-16T09:36:28;102836.59;;;9.11;100.00
75933;BME280;64803;52.356;5.310;2023-04-16T09:38:54;102842.91;;;9.10;100.00
75933;BME280;64803;52.356;5.310;2023-04-16T09:41:28;102842.69;;;9.13;100.00
75933;BME280;64803;52.356;5.310;2023-04-16T09:43:54;102850.22;;;9.08;100.00
75933;BME280;64803;52.356;5.310;2023-04-16T09:46:21;102843.88;;;9.09;100.00
75933;BME280;64803;52.356;5.310;2023-04-16T09:48:47;102849.38;;;9.07;100.00
75933;BME280;64803;52.356;5.310;2023-04-16T09:51:13;102850.34;;;9.18;100.00
75933;BME280;64803;52.356;5.310;2023-04-16T09:53:39;102849.28;;;9.20;100.00
75933;BME280;64803;52.356;5.310;2023-04-16T09:56:06;102853.66;;;9.21;100.00
75933;BME280;64803;52.356;5.310;2023-04-16T09:58:35;102856.94;;;9.25;100.00
75933;BME280;64803;52.356;5.310;2023-04-16T10:01:04;102858.06;;;9.22;100.00
75933;BME280;64803;52.356;5.310;2023-04-16T10:03:32;102856.41;;;9.08;100.00
75933;BME280;64803;52.356;5.310;2023-04-16T10:08:43;102857.28;;;9.09;100.00
75933;BME280;64803;52.356;5.310;2023-04-16T10:11:09;102863.91;;;9.27;100.00
75933;BME280;64803;52.356;5.310;2023-04-16T10:13:36;102839.50;;;9.08;100.00
75933;BME280;64803;52.356;5.310;2023-04-16T10:16:02;102869.38;;;9.26;100.00
75933;BME280;64803;52.356;5.310;2023-04-16T10:18:28;102872.69;;;9.29;100.00
75933;BME280;64803;52.356;5.310;2023-04-16T10:20:54;102862.44;;;9.23;100.00
75933;BME280;64803;52.356;5.310;2023-04-16T10:23:21;102867.94;;;9.33;100.00
75933;BME280;64803;52.356;5.310;2023-04-16T10:25:48;102870.13;;;9.39;100.00
75933;BME280;64803;52.356;5.310;2023-04-16T10:28:15;102870.00;;;9.51;100.00
75933;BME280;64803;52.356;5.310;2023-04-16T10:30:46;102869.50;;;9.35;100.00
75933;BME280;64803;52.356;5.310;2023-04-16T10:33:21;102876.81;;;9.33;100.00
75933;BME280;64803;52.356;5.310;2023-04-16T10:35:49;102872.44;;;9.32;100.00
75933;BME280;64803;52.356;5.310;2023-04-16T10:38:26;102877.78;;;9.43;100.00
75933;BME280;64803;52.356;5.310;2023-04-16T10:41:00;102873.44;;;9.53;100.00
75933;BME280;64803;52.356;5.310;2023-04-16T10:43:28;102872.78;;;9.39;100.00
75933;BME280;64803;52.356;5.310;2023-04-16T10:45:54;102870.50;;;9.56;100.00
75933;BME280;64803;52.356;5.310;2023-04-16T10:48:23;102880.13;;;9.48;100.00
75933;BME280;64803;52.356;5.310;2023-04-16T10:50:56;102881.44;;;9.42;100.00
75933;BME280;64803;52.356;5.310;2023-04-16T10:53:24;102886.81;;;9.42;100.00
75933;BME280;64803;52.356;5.310;2023-04-16T10:56:09;102882.03;;;9.35;100.00
75933;BME280;64803;52.356;5.310;2023-04-16T10:58:36;102883.91;;;9.34;100.00
75933;BME280;64803;52.356;5.310;2023-04-16T11:01:15;102876.94;;;9.32;100.00
75933;BME280;64803;52.356;5.310;2023-04-16T11:03:42;102877.06;;;9.52;100.00
75933;BME280;64803;52.356;5.310;2023-04-16T11:06:15;102877.81;;;9.65;100.00
75933;BME280;64803;52.356;5.310;2023-04-16T11:08:45;102870.59;;;9.44;100.00
75933;BME280;64803;52.356;5.310;2023-04-16T11:11:12;102868.28;;;9.50;100.00
75933;BME280;64803;52.356;5.310;2023-04-16T11:13:42;102874.63;;;9.60;100.00
75933;BME280;64803;52.356;5.310;2023-04-16T11:16:09;102871.34;;;9.57;100.00
75933;BME280;64803;52.356;5.310;2023-04-16T11:18:35;102882.91;;;9.57;100.00
75933;BME280;64803;52.356;5.310;2023-04-16T11:21:01;102880.13;;;9.59;100.00
75933;BME280;64803;52.356;5.310;2023-04-16T11:23:27;102882.69;;;9.60;100.00
75933;BME280;64803;52.356;5.310;2023-04-16T11:25:53;102860.22;;;9.50;100.00
75933;BME280;64803;52.356;5.310;2023-04-16T11:28:33;102881.34;;;9.66;100.00
75933;BME280;64803;52.356;5.310;2023-04-16T11:30:59;102878.03;;;9.84;100.00
75933;BME280;64803;52.356;5.310;2023-04-16T11:33:33;102876.09;;;9.75;100.00
75933;BME280;64803;52.356;5.310;2023-04-16T11:35:59;102886.34;;;9.70;100.00
75933;BME280;64803;52.356;5.310;2023-04-16T11:38:36;102883.41;;;9.84;100.00
75933;BME280;64803;52.356;5.310;2023-04-16T11:41:02;102880.59;;;9.86;100.00
75933;BME280;64803;52.356;5.310;2023-04-16T11:43:28;102893.00;;;9.87;100.00
75933;BME280;64803;52.356;5.310;2023-04-16T11:46:05;102886.56;;;10.11;100.00
75933;BME280;64803;52.356;5.310;2023-04-16T11:48:48;102888.97;;;10.03;100.00
75933;BME280;64803;52.356;5.310;2023-04-16T11:51:14;102881.69;;;9.83;100.00
75933;BME280;64803;52.356;5.310;2023-04-16T11:53:48;102882.66;;;9.93;100.00
75933;BME280;64803;52.356;5.310;2023-04-16T11:56:15;102893.22;;;10.06;100.00
75933;BME280;64803;52.356;5.310;2023-04-16T11:59:21;102887.41;;;10.12;100.00
75933;BME280;64803;52.356;5.310;2023-04-16T12:01:53;102888.81;;;10.27;100.00
75933;BME280;64803;52.356;5.310;2023-04-16T12:04:24;102892.16;;;9.97;100.00
75933;BME280;64803;52.356;5.310;2023-04-16T12:07:10;102895.94;;;9.73;100.00
75933;BME280;64803;52.356;5.310;2023-04-16T12:09:38;102885.72;;;10.11;100.00
75933;BME280;64803;52.356;5.310;2023-04-16T12:12:04;102893.03;;;10.09;100.00
75933;BME280;64803;52.356;5.310;2023-04-16T12:14:31;102866.78;;;10.01;100.00
75933;BME280;64803;52.356;5.310;2023-04-16T12:17:19;102896.19;;;10.03;100.00
75933;BME280;64803;52.356;5.310;2023-04-16T12:22:31;102895.59;;;10.22;100.00
75933;BME280;64803;52.356;5.310;2023-04-16T12:24:58;102895.22;;;10.04;100.00
75933;BME280;64803;52.356;5.310;2023-04-16T12:27:24;102902.06;;;9.97;100.00
75933;BME280;64803;52.356;5.310;2023-04-16T12:30:04;102902.66;;;10.11;100.00
75933;BME280;64803;52.356;5.310;2023-04-16T12:32:30;102908.38;;;9.96;100.00
75933;BME280;64803;52.356;5.310;2023-04-16T12:34:56;102913.66;;;9.86;100.00
75933;BME280;64803;52.356;5.310;2023-04-16T12:37:22;102910.72;;;9.78;100.00
75933;BME280;64803;52.356;5.310;2023-04-16T12:39:48;102897.78;;;9.94;100.00
75933;BME280;64803;52.356;5.310;2023-04-16T12:42:14;102898.16;;;10.12;100.00
75933;BME280;64803;52.356;5.310;2023-04-16T12:44:40;102905.94;;;10.26;100.00
75933;BME280;64803;52.356;5.310;2023-04-16T12:47:06;102903.38;;;10.25;100.00
75933;BME280;64803;52.356;5.310;2023-04-16T12:49:32;102903.00;;;10.07;100.00
75933;BME280;64803;52.356;5.310;2023-04-16T12:51:58;102904.59;;;10.20;100.00
75933;BME280;64803;52.356;5.310;2023-04-16T12:54:24;102913.78;;;10.18;100.00
75933;BME280;64803;52.356;5.310;2023-04-16T12:56:53;102915.81;;;10.03;100.00
75933;BME280;64803;52.356;5.310;2023-04-16T12:59:19;102918.75;;;10.11;100.00